Time;durP1;ratioP1;P1;durP2;ratioP2;P2;SDS_P1;SDS_P2;PMS_P1;PMS_P2;Temp;Humidity;BMP_temperature;BMP_pressure;BME280_temperature;BME280_humidity;BME280_pressure;Samples;Min_cycle;Max_cycle;Signal;HPM_P1;HPM_P2
2022/12/24 00:01:26;;;;;;;77.93;8.93;;;9.60;99.90;;;;;;4993146;28;38230;-77
2022/12/24 00:03:52;;;;;;;78.87;9.23;;;9.60;99.90;;;;;;4995148;28;38444;-78
2022/12/24 00:06:22;;;;;;;66.90;9.87;;;9.60;99.90;;;;;;4986788;28;38102;-79
2022/12/24 00:08:49;;;;;;;69.47;8.63;;;9.60;99.90;;;;;;4987170;28;36285;-79
2022/12/24 00:11:16;;;;;;;60.07;10.50;;;9.50;99.90;;;;;;4989364;28;38475;-78
2022/12/24 00:13:42;;;;;;;72.77;9.33;;;9.50;99.90;;;;;;5003077;28;38340;-79
2022/12/24 00:16:08;;;;;;;67.53;9.23;;;9.50;99.90;;;;;;4989040;28;37915;-79
2022/12/24 00:18:34;;;;;;;73.53;9.23;;;9.50;99.90;;;;;;4993280;28;37228;-79
2022/12/24 00:21:02;;;;;;;70.97;9.00;;;9.50;99.90;;;;;;4992422;28;40037;-79
2022/12/24 00:23:28;;;;;;;70.60;9.37;;;9.50;99.90;;;;;;4994553;28;37500;-79
2022/12/24 00:25:55;;;;;;;74.87;12.07;;;9.50;99.90;;;;;;5009236;28;37140;-77
2022/12/24 00:28:21;;;;;;;63.77;9.90;;;9.40;99.90;;;;;;4993902;28;37195;-79
2022/12/24 00:30:47;;;;;;;65.20;9.97;;;9.40;99.90;;;;;;4992806;28;37475;-79
2022/12/24 00:33:13;;;;;;;85.57;11.47;;;9.40;99.90;;;;;;5008075;28;38016;-80
2022/12/24 00:35:40;;;;;;;64.30;9.87;;;9.40;99.90;;;;;;5000381;28;39228;-79
2022/12/24 00:38:07;;;;;;;76.40;9.33;;;9.40;99.90;;;;;;4999681;28;38560;-79
2022/12/24 00:40:33;;;;;;;82.83;9.53;;;9.40;99.90;;;;;;4994060;28;37671;-79
2022/12/24 00:42:59;;;;;;;66.73;9.83;;;9.40;99.90;;;;;;5002252;28;39042;-78
2022/12/24 00:45:26;;;;;;;73.03;10.67;;;9.40;99.90;;;;;;4996378;28;36982;-78
2022/12/24 00:47:54;;;;;;;90.77;11.57;;;9.40;99.90;;;;;;5002335;28;37061;-78
2022/12/24 00:50:20;;;;;;;73.53;9.70;;;9.40;99.90;;;;;;5001704;28;39035;-78
2022/12/24 00:52:46;;;;;;;79.67;10.40;;;9.40;99.90;;;;;;5002537;28;38559;-79
2022/12/24 00:55:12;;;;;;;77.43;9.97;;;9.40;99.90;;;;;;5000743;28;37943;-78
2022/12/24 00:57:38;;;;;;;79.40;10.27;;;9.50;99.90;;;;;;5002751;28;37316;-78
2022/12/24 01:00:05;;;;;;;82.37;11.47;;;9.40;99.90;;;;;;5001654;28;39106;-78
2022/12/24 01:02:31;;;;;;;80.33;10.77;;;9.40;99.90;;;;;;5005996;28;37098;-79
2022/12/24 01:05:09;;;;;;;76.00;9.97;;;9.40;99.90;;;;;;4994865;28;36781;-78
2022/12/24 01:07:40;;;;;;;65.83;10.57;;;9.40;99.90;;;;;;4997536;28;47414;-78
2022/12/24 01:10:07;;;;;;;58.93;8.83;;;9.40;99.90;;;;;;4995003;28;37855;-78
2022/12/24 01:12:33;;;;;;;71.43;8.97;;;9.40;99.90;;;;;;5012486;28;37245;-78
2022/12/24 01:15:00;;;;;;;52.43;7.27;;;9.40;99.90;;;;;;4997501;28;37748;-79
2022/12/24 01:17:26;;;;;;;61.07;9.50;;;9.40;99.90;;;;;;4990035;28;38924;-79
2022/12/24 01:19:52;;;;;;;57.43;8.40;;;9.40;99.90;;;;;;4994320;28;39817;-79
2022/12/24 01:22:18;;;;;;;57.77;7.43;;;9.40;99.90;;;;;;4992222;28;37780;-79
2022/12/24 01:24:44;;;;;;;45.93;6.43;;;9.40;99.90;;;;;;4988279;28;37967;-78
2022/12/24 01:27:10;;;;;;;55.20;7.90;;;9.40;99.90;;;;;;4995457;28;36947;-79
2022/12/24 01:29:36;;;;;;;59.97;7.70;;;9.50;99.90;;;;;;4990453;28;39107;-79
2022/12/24 01:32:02;;;;;;;60.67;9.03;;;9.40;99.90;;;;;;4995229;28;38859;-78
2022/12/24 01:34:28;;;;;;;50.90;6.97;;;9.40;99.90;;;;;;4987754;28;37398;-78
2022/12/24 01:36:55;;;;;;;60.37;7.93;;;9.40;99.90;;;;;;4981321;28;37106;-80
2022/12/24 01:39:21;;;;;;;60.67;7.23;;;9.40;99.90;;;;;;4994385;28;38855;-77
2022/12/24 01:44:38;;;;;;;59.67;7.63;;;9.50;99.90;;;;;;4959052;28;48097;-78
2022/12/24 01:47:13;;;;;;;73.87;7.67;;;9.50;99.90;;;;;;4989374;28;38156;-77
2022/12/24 01:49:44;;;;;;;61.73;7.00;;;9.60;99.90;;;;;;4983368;28;37523;-78
2022/12/24 01:52:18;;;;;;;79.43;9.93;;;9.60;99.90;;;;;;5002665;28;37062;-78
2022/12/24 01:54:58;;;;;;;64.33;10.13;;;9.60;99.90;;;;;;5006600;28;37764;-79
2022/12/24 01:57:30;;;;;;;86.53;10.30;;;9.60;99.90;;;;;;5002883;28;36357;-79
2022/12/24 02:00:00;;;;;;;71.47;9.90;;;9.60;99.90;;;;;;4989957;28;37847;-79
2022/12/24 02:02:27;;;;;;;77.60;11.57;;;9.70;99.90;;;;;;5462456;23;37187;-79
2022/12/24 02:05:02;;;;;;;83.80;11.53;;;9.80;99.90;;;;;;4940178;28;36159;-79
2022/12/24 02:07:28;;;;;;;82.90;10.47;;;9.80;99.90;;;;;;4964325;28;37586;-79
2022/12/24 02:09:58;;;;;;;82.80;11.50;;;9.80;99.90;;;;;;4967927;28;38621;-79
2022/12/24 02:12:29;;;;;;;69.13;9.33;;;9.90;99.90;;;;;;4950396;28;38565;-79
2022/12/24 02:14:56;;;;;;;83.63;9.50;;;9.90;99.90;;;;;;4970148;28;38887;-79
2022/12/24 02:17:40;;;;;;;85.23;12.03;;;9.80;99.90;;;;;;4950955;28;36885;-78
2022/12/24 02:20:24;;;;;;;74.90;9.90;;;9.80;99.90;;;;;;4951100;28;37558;-79
2022/12/24 02:23:02;;;;;;;76.83;8.83;;;9.80;99.90;;;;;;4953440;28;38793;-80
2022/12/24 02:25:47;;;;;;;69.20;11.27;;;9.80;99.90;;;;;;4971231;28;48292;-79
2022/12/24 02:28:35;;;;;;;73.33;9.83;;;9.90;99.90;;;;;;4950811;28;37038;-80
2022/12/24 02:31:29;;;;;;;91.20;10.07;;;9.90;99.90;;;;;;4955110;28;37527;-79
2022/12/24 02:34:38;;;;;;;65.53;10.20;;;10.00;99.90;;;;;;4967875;28;47258;-79
2022/12/24 02:37:14;;;;;;;71.00;10.67;;;10.10;99.90;;;;;;4964097;28;48951;-78
2022/12/24 02:39:48;;;;;;;80.33;9.63;;;10.10;99.90;;;;;;4951111;28;36205;-79
2022/12/24 02:42:22;;;;;;;73.07;10.10;;;10.10;99.90;;;;;;4970201;28;38786;-80
2022/12/24 02:45:01;;;;;;;64.50;9.97;;;10.10;99.90;;;;;;4970663;28;39302;-80
2022/12/24 02:47:28;;;;;;;62.47;9.37;;;10.10;99.90;;;;;;4968817;28;39445;-80
2022/12/24 02:50:00;;;;;;;74.80;9.27;;;10.00;99.90;;;;;;4975091;28;38237;-80
2022/12/24 02:52:32;;;;;;;58.40;8.80;;;10.00;99.90;;;;;;4948468;28;37962;-80
2022/12/24 02:55:03;;;;;;;66.90;9.73;;;10.10;99.90;;;;;;4963786;28;38343;-80
2022/12/24 02:57:52;;;;;;;78.27;9.90;;;10.10;99.90;;;;;;4972561;28;38867;-80
2022/12/24 03:00:19;;;;;;;59.90;9.47;;;10.10;99.90;;;;;;4969383;28;37153;-80
2022/12/24 03:03:06;;;;;;;75.43;8.73;;;10.20;99.90;;;;;;4954440;28;37766;-80
2022/12/24 03:05:32;;;;;;;70.00;9.53;;;10.10;99.90;;;;;;4973506;28;50369;-79
2022/12/24 03:08:11;;;;;;;70.03;9.43;;;10.10;99.90;;;;;;4953168;28;37416;-80
2022/12/24 03:10:58;;;;;;;57.53;6.57;;;10.20;99.90;;;;;;4969838;28;48960;-80
2022/12/24 03:13:27;;;;;;;57.00;7.60;;;10.20;99.90;;;;;;4963799;28;38051;-80
2022/12/24 03:15:53;;;;;;;58.53;8.37;;;10.20;99.90;;;;;;4973575;28;38310;-79
2022/12/24 03:18:25;;;;;;;63.23;8.43;;;10.20;99.90;;;;;;4974749;28;38102;-79
2022/12/24 03:21:15;;;;;;;50.13;6.50;;;10.20;99.90;;;;;;4978089;28;35660;-80
2022/12/24 03:23:42;;;;;;;51.53;6.97;;;10.20;99.90;;;;;;4958022;28;46694;-80
2022/12/24 03:26:09;;;;;;;51.73;7.00;;;10.20;99.90;;;;;;4976476;28;38788;-80
2022/12/24 03:28:38;;;;;;;53.03;6.50;;;10.20;99.90;;;;;;4957464;28;37147;-81
2022/12/24 03:31:06;;;;;;;50.47;6.63;;;10.20;99.90;;;;;;4975275;28;37040;-80
2022/12/24 03:33:32;;;;;;;55.37;7.30;;;10.20;99.90;;;;;;4961738;28;46617;-81
2022/12/24 03:35:59;;;;;;;40.80;6.83;;;10.20;99.90;;;;;;4970417;28;38172;-80
2022/12/24 03:38:25;;;;;;;55.30;9.07;;;10.20;99.90;;;;;;4968245;28;37595;-80
2022/12/24 03:40:51;;;;;;;53.73;7.73;;;10.20;99.90;;;;;;4949795;28;37160;-80
2022/12/24 03:43:17;;;;;;;58.63;7.80;;;10.20;99.90;;;;;;4949625;28;38646;-80
2022/12/24 03:45:43;;;;;;;53.83;7.23;;;10.20;99.90;;;;;;4961703;28;38040;-80
2022/12/24 03:48:09;;;;;;;60.57;9.37;;;10.20;99.90;;;;;;4967151;28;38194;-80
2022/12/24 03:50:36;;;;;;;58.20;8.33;;;10.20;99.90;;;;;;4967601;28;36680;-80
2022/12/24 03:53:02;;;;;;;59.23;8.30;;;10.20;99.90;;;;;;4951927;28;37638;-81
2022/12/24 03:55:28;;;;;;;52.87;7.20;;;10.20;99.90;;;;;;4963581;28;47474;-80
2022/12/24 03:57:56;;;;;;;61.00;8.13;;;10.20;99.90;;;;;;4962744;28;37412;-80
2022/12/24 04:00:22;;;;;;;56.87;8.83;;;10.20;99.90;;;;;;4949850;28;35742;-80
2022/12/24 04:02:48;;;;;;;71.50;8.70;;;10.20;99.90;;;;;;4963404;28;38563;-80
2022/12/24 04:05:18;;;;;;;59.20;8.33;;;10.30;99.90;;;;;;4950203;28;37002;-80
2022/12/24 04:07:44;;;;;;;65.67;8.60;;;10.30;99.90;;;;;;4965522;28;38880;-80
2022/12/24 04:10:11;;;;;;;68.33;8.60;;;10.30;99.90;;;;;;4961092;28;37133;-80
2022/12/24 04:12:37;;;;;;;62.43;8.30;;;10.30;99.90;;;;;;4944213;28;39595;-79
2022/12/24 04:15:04;;;;;;;62.50;8.47;;;10.30;99.90;;;;;;4948968;28;37388;-80
2022/12/24 04:17:31;;;;;;;73.37;10.43;;;10.30;99.90;;;;;;4967569;28;47669;-80
2022/12/24 04:19:57;;;;;;;63.67;9.20;;;10.30;99.90;;;;;;4964838;28;38159;-80
2022/12/24 04:22:23;;;;;;;63.97;9.40;;;10.30;99.90;;;;;;4947339;28;38011;-80
2022/12/24 04:24:49;;;;;;;72.80;10.20;;;10.30;99.90;;;;;;4948942;28;38071;-80
2022/12/24 04:27:15;;;;;;;80.87;9.23;;;10.40;99.90;;;;;;4947888;28;38290;-80
2022/12/24 04:29:41;;;;;;;76.90;10.77;;;10.40;99.90;;;;;;4965477;28;37267;-79
2022/12/24 04:32:09;;;;;;;68.03;10.07;;;10.40;99.90;;;;;;4965824;28;38855;-80
2022/12/24 04:34:35;;;;;;;84.00;10.03;;;10.40;99.90;;;;;;4942372;28;37340;-80
2022/12/24 04:37:02;;;;;;;78.13;10.43;;;10.40;99.90;;;;;;4950158;28;37090;-77
2022/12/24 04:39:29;;;;;;;84.90;10.47;;;10.40;99.90;;;;;;4951187;28;36117;-80
2022/12/24 04:41:55;;;;;;;82.53;9.57;;;10.40;99.90;;;;;;4954239;28;37623;-79
2022/12/24 04:44:21;;;;;;;94.73;11.47;;;10.40;99.90;;;;;;4946875;28;37336;-79
2022/12/24 04:46:47;;;;;;;84.17;11.37;;;10.40;99.90;;;;;;4963780;28;36885;-79
2022/12/24 04:49:13;;;;;;;87.77;11.63;;;10.40;99.90;;;;;;4950851;28;38430;-79
2022/12/24 04:51:39;;;;;;;93.03;12.53;;;10.50;99.90;;;;;;4965618;28;39547;-79
2022/12/24 04:54:05;;;;;;;90.17;12.77;;;10.50;99.90;;;;;;4950419;28;37522;-78
2022/12/24 04:56:32;;;;;;;83.97;10.83;;;10.50;99.90;;;;;;4967544;28;38225;-80
2022/12/24 04:58:59;;;;;;;93.40;11.00;;;10.50;99.90;;;;;;4971770;28;38916;-79
2022/12/24 05:01:28;;;;;;;83.50;11.73;;;10.50;99.90;;;;;;4965355;28;39387;-79
2022/12/24 05:03:54;;;;;;;101.73;12.73;;;10.60;99.90;;;;;;4965681;28;37902;-79
2022/12/24 05:06:27;;;;;;;77.87;11.23;;;10.60;99.90;;;;;;4944669;28;38436;-79
2022/12/24 05:08:54;;;;;;;79.80;11.33;;;10.60;99.90;;;;;;4953157;28;36297;-79
2022/12/24 05:11:20;;;;;;;79.53;11.77;;;10.60;99.90;;;;;;4963414;28;39851;-79
2022/12/24 05:13:47;;;;;;;89.73;10.87;;;10.60;99.90;;;;;;4950107;28;37107;-80
2022/12/24 05:16:14;;;;;;;81.97;11.47;;;10.60;99.90;;;;;;4968749;28;38443;-79
2022/12/24 05:18:40;;;;;;;96.37;12.97;;;10.60;99.90;;;;;;4951222;28;37147;-79
2022/12/24 05:21:15;;;;;;;95.40;12.77;;;10.60;99.90;;;;;;4970445;28;39270;-79
2022/12/24 05:26:32;;;;;;;77.10;10.40;;;10.60;99.90;;;;;;4967302;28;37349;-79
2022/12/24 05:28:59;;;;;;;78.87;11.53;;;10.60;99.90;;;;;;4972221;28;38274;-79
2022/12/24 05:31:28;;;;;;;91.20;13.90;;;10.60;99.90;;;;;;4951528;28;37982;-79
2022/12/24 05:33:54;;;;;;;87.10;11.30;;;10.60;99.90;;;;;;4973986;28;38852;-79
2022/12/24 05:36:21;;;;;;;95.73;12.60;;;10.60;99.90;;;;;;4949889;28;39684;-80
2022/12/24 05:38:47;;;;;;;84.57;11.97;;;10.60;99.90;;;;;;4972461;28;37310;-80
2022/12/24 05:41:13;;;;;;;85.13;11.93;;;10.50;99.90;;;;;;4953466;28;37586;-79
2022/12/24 05:43:39;;;;;;;79.50;10.47;;;10.50;99.90;;;;;;4947404;28;36952;-79
2022/12/24 05:46:08;;;;;;;88.87;11.90;;;10.50;99.90;;;;;;4963570;28;38841;-80
2022/12/24 05:48:34;;;;;;;89.03;11.87;;;10.50;99.90;;;;;;4967838;28;37645;-79
2022/12/24 05:51:05;;;;;;;86.10;11.00;;;10.40;99.90;;;;;;4970752;28;39627;-79
2022/12/24 05:53:31;;;;;;;83.97;10.67;;;10.40;99.90;;;;;;4970947;28;48445;-79
2022/12/24 05:56:08;;;;;;;75.20;11.93;;;10.30;99.90;;;;;;4957609;28;39122;-79
2022/12/24 05:58:34;;;;;;;82.87;11.50;;;10.30;99.90;;;;;;4952630;28;47017;-79
2022/12/24 06:01:02;;;;;;;80.33;12.17;;;10.20;99.90;;;;;;4967471;28;38895;-79
2022/12/24 06:03:29;;;;;;;75.50;11.43;;;10.20;99.90;;;;;;4965161;28;39377;-80
2022/12/24 06:06:05;;;;;;;76.97;10.27;;;10.10;99.90;;;;;;4967803;28;38212;-80
2022/12/24 06:08:32;;;;;;;74.63;10.40;;;10.10;99.90;;;;;;4952112;28;47570;-80
2022/12/24 06:11:02;;;;;;;82.47;10.87;;;10.10;99.90;;;;;;4972411;28;38981;-80
2022/12/24 06:13:28;;;;;;;95.97;10.80;;;10.10;99.90;;;;;;4970684;28;38384;-80
2022/12/24 06:15:59;;;;;;;73.77;10.03;;;10.00;99.90;;;;;;4966210;28;39885;-80
2022/12/24 06:18:25;;;;;;;75.97;10.37;;;10.00;99.90;;;;;;4947704;28;36187;-80
2022/12/24 06:20:55;;;;;;;74.53;10.13;;;10.00;99.90;;;;;;4966976;28;39547;-80
2022/12/24 06:23:22;;;;;;;84.77;10.40;;;9.80;99.90;;;;;;4959841;28;37696;-80
2022/12/24 06:25:50;;;;;;;80.27;10.77;;;9.90;99.90;;;;;;4961433;28;40405;-79
2022/12/24 06:28:16;;;;;;;89.90;10.37;;;9.80;99.90;;;;;;4952200;28;36302;-79
2022/12/24 06:30:47;;;;;;;80.27;12.20;;;9.80;99.90;;;;;;4952025;28;39543;-79
2022/12/24 06:33:14;;;;;;;81.30;10.90;;;9.80;99.90;;;;;;4965001;28;39324;-80
2022/12/24 06:35:40;;;;;;;69.93;9.97;;;9.80;99.90;;;;;;4956399;28;37307;-79
2022/12/24 06:38:06;;;;;;;84.10;10.40;;;9.80;99.90;;;;;;4969555;28;37318;-79
2022/12/24 06:40:32;;;;;;;97.40;12.73;;;9.80;99.90;;;;;;4964178;28;39655;-81
2022/12/24 06:42:59;;;;;;;74.93;10.13;;;9.80;99.90;;;;;;4951940;28;39456;-79
2022/12/24 06:45:25;;;;;;;74.43;8.40;;;9.80;99.90;;;;;;4949404;28;37683;-79
2022/12/24 06:47:51;;;;;;;72.83;9.73;;;9.80;99.90;;;;;;4967970;28;38385;-79
2022/12/24 06:50:17;;;;;;;89.07;10.40;;;9.80;99.90;;;;;;4969324;28;39337;-80
2022/12/24 06:52:43;;;;;;;85.03;10.37;;;9.90;99.90;;;;;;4953324;28;37354;-79
2022/12/24 06:55:09;;;;;;;80.93;10.60;;;10.00;99.90;;;;;;4971435;28;39121;-79
2022/12/24 06:57:35;;;;;;;99.83;10.67;;;10.10;99.90;;;;;;4949834;28;35004;-79
2022/12/24 07:00:02;;;;;;;79.00;9.53;;;10.10;99.90;;;;;;4969441;28;38581;-80
2022/12/24 07:02:28;;;;;;;84.33;11.23;;;10.10;99.90;;;;;;4952861;28;38133;-78
2022/12/24 07:04:54;;;;;;;80.80;11.57;;;10.10;99.90;;;;;;4972282;28;37997;-79
2022/12/24 07:07:20;;;;;;;83.53;11.30;;;10.20;99.90;;;;;;4950965;28;35721;-79
2022/12/24 07:09:47;;;;;;;73.07;11.13;;;10.20;99.90;;;;;;4953556;28;37980;-79
2022/12/24 07:12:13;;;;;;;84.73;10.93;;;10.30;99.90;;;;;;4950670;28;37217;-79
2022/12/24 07:14:39;;;;;;;80.63;11.77;;;10.40;99.90;;;;;;4947599;28;36316;-80
2022/12/24 07:17:05;;;;;;;81.03;11.00;;;10.40;99.90;;;;;;4949721;28;36478;-80
2022/12/24 07:19:31;;;;;;;80.97;10.83;;;10.40;99.90;;;;;;4972849;28;39042;-80
2022/12/24 07:21:57;;;;;;;78.20;10.50;;;10.40;99.90;;;;;;4966396;28;38636;-81
2022/12/24 07:24:23;;;;;;;66.10;10.00;;;10.40;99.90;;;;;;4966988;28;38150;-80
2022/12/24 07:26:49;;;;;;;80.70;11.13;;;10.40;99.90;;;;;;4961435;28;37300;-80
2022/12/24 07:29:15;;;;;;;75.13;11.50;;;10.40;99.90;;;;;;4946508;28;37582;-79
2022/12/24 07:31:41;;;;;;;74.10;10.83;;;10.40;99.90;;;;;;4965419;28;37924;-80
2022/12/24 07:34:08;;;;;;;75.43;11.37;;;10.40;99.90;;;;;;4946583;28;36657;-79
2022/12/24 07:36:34;;;;;;;65.93;9.77;;;10.40;99.90;;;;;;4951895;28;37412;-79
2022/12/24 07:39:00;;;;;;;81.67;11.63;;;10.30;99.90;;;;;;4948702;28;37903;-79
2022/12/24 07:41:26;;;;;;;80.57;12.03;;;10.30;99.90;;;;;;4962527;28;38522;-79
2022/12/24 07:43:52;;;;;;;71.03;8.97;;;10.30;99.90;;;;;;4963372;28;37888;-79
2022/12/24 07:46:18;;;;;;;89.97;10.17;;;10.40;99.90;;;;;;4962285;28;36134;-79
2022/12/24 07:48:44;;;;;;;78.17;9.43;;;10.30;99.90;;;;;;4967413;28;39308;-80
2022/12/24 07:51:10;;;;;;;80.13;10.80;;;10.20;99.90;;;;;;4948997;28;37254;-79
2022/12/24 07:53:36;;;;;;;83.17;9.33;;;10.20;99.90;;;;;;4967865;28;37675;-80
2022/12/24 07:56:02;;;;;;;72.60;9.00;;;10.30;99.90;;;;;;4965393;28;37757;-79
2022/12/24 07:58:28;;;;;;;69.57;8.67;;;10.20;99.90;;;;;;4951145;28;37323;-79
2022/12/24 08:00:58;;;;;;;70.10;10.37;;;10.20;99.90;;;;;;4968894;28;38298;-80
2022/12/24 08:03:25;;;;;;;60.70;10.20;;;10.10;99.90;;;;;;4962873;28;39083;-80
2022/12/24 08:05:51;;;;;;;71.73;9.73;;;10.10;99.90;;;;;;4945007;28;37623;-80
2022/12/24 08:08:18;;;;;;;64.87;9.37;;;10.10;99.90;;;;;;4948751;28;38918;-80
2022/12/24 08:10:44;;;;;;;69.67;10.57;;;10.00;99.90;;;;;;4963421;28;37334;-80
2022/12/24 08:13:11;;;;;;;55.10;9.20;;;10.00;99.90;;;;;;4966030;28;40401;-80
2022/12/24 08:15:37;;;;;;;61.37;9.03;;;10.00;99.90;;;;;;4970234;28;37723;-80
2022/12/24 08:18:03;;;;;;;71.37;9.33;;;10.00;99.90;;;;;;4947948;28;37911;-80
2022/12/24 08:20:29;;;;;;;71.50;7.93;;;10.00;99.90;;;;;;4951792;28;37768;-80
2022/12/24 08:22:55;;;;;;;66.33;9.23;;;10.00;99.90;;;;;;4971773;28;39394;-80
2022/12/24 08:25:21;;;;;;;74.93;9.77;;;10.10;99.90;;;;;;4952851;28;39473;-80
2022/12/24 08:27:47;;;;;;;63.10;8.33;;;10.10;99.90;;;;;;4949296;28;37541;-80
2022/12/24 08:30:14;;;;;;;69.13;10.00;;;10.20;99.90;;;;;;4966983;28;38476;-79
2022/12/24 08:32:40;;;;;;;66.20;8.97;;;10.30;99.90;;;;;;4954350;28;39121;-80
2022/12/24 08:35:07;;;;;;;66.17;9.13;;;10.30;99.90;;;;;;4963687;28;38648;-79
2022/12/24 08:37:33;;;;;;;65.07;9.40;;;10.40;99.90;;;;;;4969103;28;38233;-79
2022/12/24 08:39:59;;;;;;;67.17;9.90;;;10.40;99.90;;;;;;4964979;28;38661;-80
2022/12/24 08:42:25;;;;;;;75.60;10.03;;;10.40;99.90;;;;;;4948748;28;36820;-80
2022/12/24 08:44:51;;;;;;;55.27;7.43;;;10.50;99.90;;;;;;4969285;28;37284;-80
2022/12/24 08:47:17;;;;;;;66.07;9.63;;;10.50;99.90;;;;;;4963462;28;39156;-81
2022/12/24 08:49:43;;;;;;;77.57;10.57;;;10.50;99.90;;;;;;4951565;28;37409;-80
2022/12/24 08:52:09;;;;;;;52.83;7.93;;;10.50;99.90;;;;;;4951152;28;37060;-81
2022/12/24 08:54:35;;;;;;;68.20;8.43;;;10.50;99.90;;;;;;4950362;28;36568;-79
2022/12/24 08:57:01;;;;;;;45.70;7.47;;;10.60;99.90;;;;;;4960816;28;39245;-79
2022/12/24 08:59:35;;;;;;;65.60;9.30;;;10.60;99.90;;;;;;4946173;28;47317;-80
2022/12/24 09:02:01;;;;;;;58.97;8.50;;;10.60;99.90;;;;;;4933720;28;38203;-79
2022/12/24 09:04:27;;;;;;;59.27;8.80;;;10.70;99.90;;;;;;4965239;28;48049;-81
2022/12/24 09:06:53;;;;;;;69.97;10.63;;;10.70;99.90;;;;;;4957055;28;37703;-80
2022/12/24 09:09:19;;;;;;;63.97;9.53;;;10.70;99.90;;;;;;4962666;28;37121;-80
2022/12/24 09:11:45;;;;;;;68.93;8.57;;;10.80;99.90;;;;;;4966961;28;39050;-80
2022/12/24 09:14:12;;;;;;;65.27;9.43;;;10.80;99.90;;;;;;4951584;28;36172;-79
2022/12/24 09:16:39;;;;;;;69.17;9.70;;;10.80;99.90;;;;;;4969945;28;40149;-82
2022/12/24 09:19:05;;;;;;;51.50;9.50;;;10.80;99.90;;;;;;4958815;28;38367;-80
2022/12/24 09:21:31;;;;;;;63.60;9.17;;;10.80;99.90;;;;;;4971564;28;38457;-80
2022/12/24 09:23:59;;;;;;;71.17;8.37;;;10.80;99.90;;;;;;4967710;28;38650;-78
2022/12/24 09:26:26;;;;;;;59.70;8.63;;;10.80;99.90;;;;;;4944060;28;37609;-79
2022/12/24 09:28:52;;;;;;;59.27;8.50;;;10.80;99.90;;;;;;4951602;28;40311;-79
2022/12/24 09:31:19;;;;;;;64.07;9.37;;;10.90;99.90;;;;;;4952519;28;38458;-80
2022/12/24 09:33:48;;;;;;;68.63;9.27;;;10.80;99.90;;;;;;4969603;28;37365;-80
2022/12/24 09:36:14;;;;;;;65.17;8.77;;;10.90;99.90;;;;;;4952878;28;37365;-80
2022/12/24 09:38:41;;;;;;;49.83;7.67;;;11.00;99.90;;;;;;4954697;28;37213;-80
2022/12/24 09:41:14;;;;;;;69.53;9.60;;;11.10;99.90;;;;;;4968578;28;38838;-80
2022/12/24 09:43:47;;;;;;;64.20;8.70;;;11.20;99.90;;;;;;4952917;28;37746;-80
2022/12/24 09:46:25;;;;;;;59.20;9.83;;;11.20;99.90;;;;;;4954524;28;37075;-81
2022/12/24 09:48:55;;;;;;;69.10;8.83;;;11.20;99.90;;;;;;4953874;28;38099;-80
2022/12/24 09:51:36;;;;;;;62.57;9.03;;;11.20;99.90;;;;;;4979454;28;38100;-80
2022/12/24 09:54:21;;;;;;;54.65;9.38;;;11.30;99.90;;;;;;4969145;28;37027;-80
2022/12/24 09:56:51;;;;;;;67.03;8.57;;;11.30;99.90;;;;;;4974304;28;48592;-82
2022/12/24 09:59:27;;;;;;;59.73;9.23;;;11.40;99.90;;;;;;4941841;28;38373;-82
2022/12/24 10:01:56;;;;;;;64.10;9.05;;;11.30;99.90;;;;;;4972919;28;37813;-80
2022/12/24 10:04:28;;;;;;;64.03;9.57;;;11.40;99.90;;;;;;4971105;28;38495;-81
2022/12/24 10:07:28;;;;;;;58.33;8.77;;;11.40;99.90;;;;;;4962339;28;39325;-79
2022/12/24 10:10:13;;;;;;;56.03;8.77;;;11.40;99.90;;;;;;4944104;28;48136;-80
2022/12/24 10:12:42;;;;;;;55.23;7.63;;;11.30;99.90;;;;;;4950458;28;46952;-80
2022/12/24 10:15:23;;;;;;;59.93;8.43;;;11.30;99.90;;;;;;4959180;28;37402;-80
2022/12/24 10:18:07;;;;;;;55.90;9.10;;;11.30;99.90;;;;;;4964070;28;37805;-80
2022/12/24 10:20:55;;;;;;;54.80;8.93;;;11.30;99.90;;;;;;4962438;28;47522;-80
2022/12/24 10:23:59;;;;;;;62.03;9.03;;;11.30;99.90;;;;;;4929516;28;37033;-82
2022/12/24 10:26:45;;;;;;;61.33;8.30;;;11.30;99.90;;;;;;4939488;28;36185;-81
2022/12/24 10:29:23;;;;;;;53.57;7.97;;;11.10;99.90;;;;;;4989997;23;39045;-78
2022/12/24 10:31:52;;;;;;;56.70;9.17;;;11.10;99.90;;;;;;4955623;28;39307;-79
2022/12/24 10:34:27;;;;;;;61.27;8.77;;;11.00;99.90;;;;;;4937379;28;39122;-78
2022/12/24 10:36:53;;;;;;;54.23;8.60;;;11.00;99.90;;;;;;4955954;28;36950;-80
2022/12/24 10:39:23;;;;;;;57.67;9.20;;;11.00;99.90;;;;;;4952484;28;37361;-78
2022/12/24 10:41:51;;;;;;;57.10;8.60;;;10.90;99.90;;;;;;4944722;28;38947;-79
2022/12/24 10:44:21;;;;;;;52.63;7.60;;;10.90;99.90;;;;;;4960257;28;38049;-78
2022/12/24 10:46:47;;;;;;;54.17;9.27;;;10.80;99.90;;;;;;4940919;28;36291;-78
2022/12/24 10:49:16;;;;;;;56.47;8.10;;;10.70;99.90;;;;;;4938143;28;37661;-78
2022/12/24 10:51:58;;;;;;;55.47;7.63;;;10.60;99.90;;;;;;4934444;28;39180;-79
2022/12/24 10:54:27;;;;;;;63.05;8.27;;;10.60;99.90;;;;;;4968585;28;38843;-78
2022/12/24 10:56:58;;;;;;;66.87;9.43;;;10.60;99.90;;;;;;4945510;28;37372;-78
2022/12/24 10:59:32;;;;;;;63.73;9.07;;;10.70;99.90;;;;;;4938057;28;39756;-79
2022/12/24 11:02:00;;;;;;;63.73;9.00;;;10.80;99.90;;;;;;4939714;28;38849;-79
2022/12/24 11:04:31;;;;;;;58.53;8.17;;;10.80;99.90;;;;;;4950234;28;37958;-79
2022/12/24 11:07:04;;;;;;;57.30;8.00;;;10.90;99.90;;;;;;4937472;28;36285;-78
2022/12/24 11:09:35;;;;;;;53.50;7.77;;;10.90;99.90;;;;;;4937384;28;47326;-78
2022/12/24 11:12:14;;;;;;;57.90;8.27;;;10.90;99.90;;;;;;4952505;28;38676;-79
2022/12/24 11:14:41;;;;;;;65.13;9.13;;;10.90;99.90;;;;;;4935453;28;47720;-78
2022/12/24 11:17:19;;;;;;;51.07;8.33;;;11.00;99.90;;;;;;4940460;28;36134;-79
2022/12/24 11:19:48;;;;;;;59.13;8.33;;;11.00;99.90;;;;;;4939095;28;38095;-79
2022/12/24 11:22:33;;;;;;;48.93;7.30;;;11.10;99.90;;;;;;4956464;28;37289;-81
2022/12/24 11:25:21;;;;;;;50.03;7.37;;;11.10;99.90;;;;;;4955021;28;40120;-80
2022/12/24 11:27:50;;;;;;;49.03;6.93;;;11.30;99.90;;;;;;4968138;28;47782;-81
2022/12/24 11:30:31;;;;;;;41.30;7.47;;;11.30;99.90;;;;;;4964960;28;40328;-81
2022/12/24 11:33:00;;;;;;;45.33;6.67;;;11.40;99.90;;;;;;4949472;28;38661;-81
2022/12/24 11:35:28;;;;;;;40.33;6.10;;;11.50;99.90;;;;;;4964387;28;39770;-81
2022/12/24 11:38:02;;;;;;;48.80;7.43;;;11.50;99.90;;;;;;4995566;28;36261;-81
2022/12/24 11:40:42;;;;;;;41.87;6.30;;;11.40;99.90;;;;;;4962484;28;39191;-81
2022/12/24 11:43:18;;;;;;;44.53;8.07;;;11.30;99.90;;;;;;4968538;28;38537;-81
2022/12/24 11:45:55;;;;;;;46.80;6.87;;;11.30;99.90;;;;;;4966208;28;38169;-80
2022/12/24 11:48:29;;;;;;;39.03;6.50;;;11.20;99.90;;;;;;4968317;28;36941;-81
2022/12/24 11:50:58;;;;;;;59.37;8.60;;;11.20;99.90;;;;;;4941956;28;37832;-80
2022/12/24 11:53:39;;;;;;;40.13;6.30;;;11.20;99.90;;;;;;4957958;28;38734;-79
2022/12/24 11:56:36;;;;;;;46.93;8.27;;;11.20;99.90;;;;;;4936105;28;38224;-80
2022/12/24 11:59:17;;;;;;;53.93;8.53;;;11.20;99.90;;;;;;4959678;28;37234;-80
2022/12/24 12:01:49;;;;;;;49.50;7.30;;;11.10;99.90;;;;;;4948017;28;47493;-80
2022/12/24 12:04:29;;;;;;;49.05;7.35;;;11.20;99.90;;;;;;4954598;28;38434;-79
2022/12/24 12:07:35;;;;;;;41.50;6.97;;;11.30;99.90;;;;;;4960408;28;38298;-79
2022/12/24 12:10:19;;;;;;;51.43;7.33;;;11.30;99.90;;;;;;4896705;29;49028;-79
2022/12/24 12:12:55;;;;;;;40.47;6.17;;;11.40;99.90;;;;;;4896175;29;46681;-79
2022/12/24 12:15:26;;;;;;;46.40;7.23;;;11.50;99.90;;;;;;4924215;28;38781;-79
2022/12/24 12:18:11;;;;;;;40.20;6.13;;;11.50;99.90;;;;;;4962203;28;38208;-79
2022/12/24 12:20:43;;;;;;;44.83;7.97;;;11.50;99.90;;;;;;4935153;28;47196;-79
2022/12/24 12:23:22;;;;;;;43.58;7.20;;;11.50;99.90;;;;;;4955433;28;39215;-80
2022/12/24 12:25:59;;;;;;;36.93;5.83;;;11.50;99.90;;;;;;4938126;28;38639;-80
2022/12/24 12:28:27;;;;;;;43.50;6.23;;;11.50;99.90;;;;;;4964224;28;38618;-80
2022/12/24 12:31:19;;;;;;;39.17;6.93;;;11.50;99.90;;;;;;4960456;28;37301;-80
2022/12/24 12:34:08;;;;;;;44.70;6.97;;;11.50;99.90;;;;;;4920440;28;20044;-80
2022/12/24 12:36:52;;;;;;;44.80;8.77;;;11.40;99.90;;;;;;4955388;28;46682;-79
2022/12/24 12:39:18;;;;;;;33.67;7.57;;;11.40;99.90;;;;;;4939583;28;36779;-80
2022/12/24 12:41:53;;;;;;;42.43;6.63;;;11.50;99.90;;;;;;4956911;28;37600;-80
2022/12/24 12:44:57;;;;;;;46.10;8.17;;;11.60;99.90;;;;;;4945969;28;41441;-80
2022/12/24 12:47:41;;;;;;;44.92;6.53;;;11.60;99.90;;;;;;4940857;28;38488;-78
2022/12/24 12:50:17;;;;;;;51.87;7.97;;;11.70;99.90;;;;;;4953560;28;37533;-80
2022/12/24 12:53:05;;;;;;;37.22;6.95;;;11.70;99.90;;;;;;4956577;28;37152;-79
2022/12/24 12:55:55;;;;;;;47.57;7.53;;;11.80;99.90;;;;;;4962199;28;48425;-80
2022/12/24 12:58:40;;;;;;;34.67;5.90;;;11.80;99.90;;;;;;4959172;28;37391;-80